Time;durP1;ratioP1;P1;durP2;ratioP2;P2;SDS_P1;SDS_P2;PMS_P1;PMS_P2;Temp;Humidity;BMP_temperature;BMP_pressure;BME280_temperature;BME280_humidity;BME280_pressure;Samples;Min_cycle;Max_cycle;Signal;HPM_P1;HPM_P2
2024/02/16 00:09:20;;;;;;;7.38;4.00;;;11.10;99.90;;;;;;4991196;28;20058;-84
2024/02/16 00:12:46;;;;;;;9.77;4.00;;;11.10;99.90;;;;;;4967069;28;20054;-86
2024/02/16 00:16:26;;;;;;;9.30;4.40;;;11.10;99.90;;;;;;4971998;28;20026;-87
2024/02/16 00:19:48;;;;;;;7.75;4.32;;;11.20;99.90;;;;;;4969427;28;20034;-84
2024/02/16 00:22:44;;;;;;;9.13;3.90;;;11.20;99.90;;;;;;4975403;28;20038;-88
2024/02/16 00:26:14;;;;;;;9.80;4.38;;;11.20;99.90;;;;;;4975838;28;20058;-86
2024/02/16 00:29:43;;;;;;;9.33;4.40;;;11.20;99.90;;;;;;4975303;28;20045;-84
2024/02/16 00:32:40;;;;;;;7.97;3.92;;;11.20;99.90;;;;;;4976930;28;20037;-83
2024/02/16 00:35:53;;;;;;;6.47;3.63;;;11.20;99.90;;;;;;4945650;28;20062;-83
2024/02/16 00:38:55;;;;;;;7.20;3.95;;;11.30;99.90;;;;;;4976728;28;20110;-83
2024/02/16 00:41:23;;;;;;;7.55;3.85;;;11.30;99.90;;;;;;4957585;28;20034;-86
2024/02/16 00:43:49;;;;;;;8.40;3.45;;;11.40;99.90;;;;;;4952513;28;20050;-83
2024/02/16 00:46:15;;;;;;;11.32;4.20;;;11.30;99.90;;;;;;4996301;28;20098;-87
2024/02/16 00:48:42;;;;;;;11.13;5.00;;;11.30;99.90;;;;;;4977809;28;20645;-85
2024/02/16 00:51:08;;;;;;;7.82;4.30;;;11.30;99.90;;;;;;4979583;28;20135;-83
2024/02/16 00:53:33;;;;;;;13.30;5.80;;;11.40;99.90;;;;;;4983621;28;20507;-85
2024/02/16 00:55:59;;;;;;;9.57;4.78;;;11.40;99.90;;;;;;4981486;28;20042;-83
2024/02/16 00:58:24;;;;;;;11.95;5.25;;;11.60;99.90;;;;;;4983474;28;20030;-87
2024/02/16 01:29:54;;;;;;;13.68;6.00;;;11.50;99.90;;;;;;4995497;28;20054;-83
2024/02/16 01:33:07;;;;;;;12.32;5.85;;;11.40;99.90;;;;;;4994466;28;20064;-87
2024/02/16 01:35:43;;;;;;;10.00;4.95;;;11.40;99.90;;;;;;4986372;28;20041;-84
2024/02/16 01:38:15;;;;;;;10.45;5.30;;;11.40;99.90;;;;;;4978861;28;20109;-87
2024/02/16 01:40:52;;;;;;;10.13;4.80;;;11.40;99.90;;;;;;5001147;28;20026;-84
2024/02/16 01:43:44;;;;;;;12.32;5.65;;;11.50;99.90;;;;;;5003862;28;20026;-85
2024/02/16 01:46:43;;;;;;;11.85;5.20;;;11.50;99.90;;;;;;4990817;28;20035;-88
2024/02/16 01:49:33;;;;;;;11.82;5.57;;;11.50;99.90;;;;;;4988380;28;20022;-86
2024/02/16 01:52:18;;;;;;;7.80;4.18;;;11.50;99.90;;;;;;4971557;28;20056;-84
2024/02/16 01:54:55;;;;;;;7.30;3.72;;;11.50;99.90;;;;;;4972069;28;20050;-84
2024/02/16 01:57:47;;;;;;;7.45;3.53;;;11.60;99.90;;;;;;4991539;28;20049;-84
2024/02/16 02:00:21;;;;;;;7.60;3.60;;;11.60;99.90;;;;;;4988458;28;20026;-87
2024/02/16 02:03:15;;;;;;;4.80;2.47;;;11.70;99.90;;;;;;4986310;28;20045;-85
2024/02/16 02:05:55;;;;;;;8.50;2.90;;;11.70;99.90;;;;;;4997971;28;20054;-86
2024/02/16 02:08:44;;;;;;;4.05;2.30;;;11.80;99.90;;;;;;4987146;28;20390;-85
2024/02/16 02:11:20;;;;;;;5.68;2.80;;;11.90;99.90;;;;;;5003167;28;20050;-85
2024/02/16 02:14:07;;;;;;;5.00;2.28;;;11.90;99.90;;;;;;4986780;28;20171;-87
2024/02/16 02:16:50;;;;;;;3.53;2.13;;;12.00;99.90;;;;;;4985938;28;20200;-85
2024/02/16 02:19:31;;;;;;;4.53;2.17;;;12.00;99.90;;;;;;4998559;28;20038;-86
2024/02/16 02:22:27;;;;;;;6.40;2.30;;;12.00;99.90;;;;;;4982859;28;20088;-85
2024/02/16 02:25:10;;;;;;;3.95;2.20;;;12.10;99.90;;;;;;4995472;28;20168;-86
2024/02/16 02:27:45;;;;;;;3.50;1.88;;;12.10;99.90;;;;;;5001307;28;20061;-86
2024/02/16 02:30:21;;;;;;;6.63;2.03;;;12.20;99.90;;;;;;4983650;28;20120;-86
2024/02/16 02:32:56;;;;;;;4.95;2.25;;;12.20;99.90;;;;;;4969319;28;20029;-86
2024/02/16 02:35:53;;;;;;;5.68;2.28;;;12.30;99.90;;;;;;4988622;28;20030;-86
2024/02/16 02:38:45;;;;;;;4.85;2.13;;;12.30;99.90;;;;;;4966975;28;20043;-85
2024/02/16 02:41:16;;;;;;;5.82;2.25;;;12.30;99.90;;;;;;4986841;28;20042;-87
2024/02/16 02:44:03;;;;;;;5.45;2.25;;;12.30;99.90;;;;;;4971949;28;20030;-87
2024/02/16 02:46:37;;;;;;;4.20;2.20;;;12.30;99.90;;;;;;4986599;28;20035;-86
2024/02/16 02:49:13;;;;;;;3.92;1.75;;;12.30;99.90;;;;;;4987504;28;20104;-86
2024/02/16 02:51:56;;;;;;;5.57;2.38;;;12.30;99.90;;;;;;4984345;28;20081;-87
2024/02/16 02:54:35;;;;;;;5.60;2.15;;;12.30;99.90;;;;;;5004275;28;20030;-86
2024/02/16 02:57:09;;;;;;;4.22;2.10;;;12.30;99.90;;;;;;4970965;28;20045;-87
2024/02/16 03:00:12;;;;;;;4.38;1.90;;;12.30;99.90;;;;;;4989832;28;20030;-85
2024/02/16 03:02:48;;;;;;;3.28;2.03;;;12.20;99.90;;;;;;4984845;28;20105;-86
2024/02/16 03:05:22;;;;;;;4.25;2.00;;;12.20;99.90;;;;;;5002380;28;20030;-85
2024/02/16 03:07:51;;;;;;;3.88;2.20;;;12.20;99.90;;;;;;4965080;28;20034;-86
2024/02/16 03:10:34;;;;;;;4.25;1.95;;;12.20;99.90;;;;;;4974571;28;20053;-84
2024/02/16 03:13:12;;;;;;;4.85;1.98;;;12.20;99.90;;;;;;4982484;28;20037;-86
2024/02/16 03:15:41;;;;;;;4.88;2.10;;;12.10;99.90;;;;;;4970054;28;20053;-86
2024/02/16 03:18:17;;;;;;;3.45;1.80;;;12.20;99.90;;;;;;5001555;28;20030;-85
2024/02/16 03:21:37;;;;;;;4.55;2.40;;;12.20;99.90;;;;;;4984820;28;20088;-86
2024/02/16 03:24:28;;;;;;;4.90;2.58;;;12.20;99.90;;;;;;4987475;28;20030;-86
2024/02/16 03:27:01;;;;;;;4.13;2.30;;;12.10;99.90;;;;;;4985231;28;20113;-87
2024/02/16 03:29:28;;;;;;;3.80;1.98;;;12.10;99.90;;;;;;4984323;28;20036;-85
2024/02/16 03:31:53;;;;;;;2.80;1.48;;;12.20;99.90;;;;;;4981984;28;20049;-86
2024/02/16 03:34:19;;;;;;;3.15;1.67;;;12.10;99.90;;;;;;4976750;28;20129;-86
2024/02/16 03:36:44;;;;;;;2.70;1.83;;;12.20;99.90;;;;;;5005600;28;20701;-87
2024/02/16 03:39:10;;;;;;;4.72;2.30;;;12.20;99.90;;;;;;4988372;28;20022;-87
2024/02/16 03:41:36;;;;;;;3.97;1.98;;;12.20;99.90;;;;;;4992039;28;20404;-86
2024/02/16 03:44:01;;;;;;;3.60;1.98;;;12.20;99.90;;;;;;5007273;28;20510;-85
2024/02/16 03:46:31;;;;;;;5.25;2.08;;;12.20;99.90;;;;;;4985630;28;20033;-87
2024/02/16 03:48:56;;;;;;;3.75;1.77;;;12.20;99.90;;;;;;4983569;28;20034;-86
2024/02/16 03:51:22;;;;;;;3.72;2.00;;;12.20;99.90;;;;;;4988135;28;20490;-84
2024/02/16 03:53:48;;;;;;;6.30;1.80;;;12.20;99.90;;;;;;4990426;28;20070;-86
2024/02/16 03:56:23;;;;;;;3.75;1.90;;;12.20;99.90;;;;;;4990022;28;20094;-85
2024/02/16 03:58:48;;;;;;;4.13;1.80;;;12.30;99.90;;;;;;4985760;28;20102;-83
2024/02/16 04:01:14;;;;;;;5.10;1.92;;;12.10;99.90;;;;;;4986569;28;20027;-87
2024/02/16 04:03:40;;;;;;;2.83;1.60;;;12.20;99.90;;;;;;4987948;28;20391;-87
2024/02/16 04:06:06;;;;;;;3.83;1.60;;;12.20;99.90;;;;;;4994240;28;20030;-83
2024/02/16 04:08:31;;;;;;;3.80;1.77;;;12.20;99.90;;;;;;4988840;28;20140;-87
2024/02/16 04:10:57;;;;;;;2.85;1.70;;;12.30;99.90;;;;;;4985212;28;20035;-85
2024/02/16 04:13:23;;;;;;;3.63;1.75;;;12.40;99.90;;;;;;4986055;28;20029;-84
2024/02/16 04:15:51;;;;;;;5.50;2.38;;;12.40;99.90;;;;;;5003531;28;20030;-86
2024/02/16 04:18:18;;;;;;;4.60;1.98;;;12.40;99.90;;;;;;4992441;28;20030;-87
2024/02/16 04:20:44;;;;;;;5.25;1.80;;;12.50;99.90;;;;;;4976657;28;20116;-86
2024/02/16 04:23:10;;;;;;;4.75;1.60;;;12.50;99.90;;;;;;4987406;28;20030;-86
2024/02/16 04:25:35;;;;;;;3.70;1.70;;;12.40;99.90;;;;;;4993599;28;20081;-85
2024/02/16 04:28:01;;;;;;;4.63;2.10;;;12.50;99.90;;;;;;4999349;28;20018;-83
2024/02/16 04:30:26;;;;;;;4.20;1.50;;;12.50;99.90;;;;;;4996539;28;20085;-87
2024/02/16 04:32:53;;;;;;;6.05;1.80;;;12.60;99.90;;;;;;4995420;28;20035;-87
2024/02/16 04:35:18;;;;;;;3.42;1.70;;;12.70;99.90;;;;;;4991134;28;20022;-85
2024/02/16 04:37:44;;;;;;;3.50;1.70;;;12.70;99.90;;;;;;4982456;28;20034;-87
2024/02/16 04:40:12;;;;;;;3.10;1.42;;;12.60;99.90;;;;;;5015534;28;20062;-85
2024/02/16 04:42:40;;;;;;;2.45;1.40;;;12.60;99.90;;;;;;5003275;28;20037;-87
2024/02/16 04:45:06;;;;;;;4.32;1.40;;;12.60;99.90;;;;;;4983022;28;20043;-86
2024/02/16 04:47:31;;;;;;;4.70;1.40;;;12.60;99.90;;;;;;4990545;28;20077;-84
2024/02/16 04:49:57;;;;;;;4.55;1.75;;;12.60;99.90;;;;;;5004297;28;20026;-86
2024/02/16 04:52:23;;;;;;;3.47;1.55;;;12.50;99.90;;;;;;4988420;28;20714;-88
2024/02/16 04:54:48;;;;;;;2.90;1.80;;;12.50;99.90;;;;;;4977591;28;20050;-87
2024/02/16 04:57:14;;;;;;;4.13;1.80;;;12.50;99.90;;;;;;4967865;28;20391;-88
2024/02/16 04:59:39;;;;;;;6.72;1.80;;;12.50;99.90;;;;;;4987804;28;20111;-82
2024/02/16 05:02:06;;;;;;;3.30;1.65;;;12.50;99.90;;;;;;4987223;28;20029;-87
2024/02/16 05:04:32;;;;;;;4.63;1.92;;;12.50;99.90;;;;;;4986555;28;20041;-86
2024/02/16 05:06:58;;;;;;;3.83;1.98;;;12.40;99.90;;;;;;4986613;28;20031;-85
2024/02/16 05:09:26;;;;;;;3.85;1.70;;;12.40;99.90;;;;;;4985051;28;20023;-87
2024/02/16 05:11:52;;;;;;;5.53;2.10;;;12.40;99.90;;;;;;4992767;28;20113;-86
2024/02/16 05:14:17;;;;;;;3.22;1.90;;;12.50;99.90;;;;;;4986250;28;20058;-84
2024/02/16 05:16:46;;;;;;;3.53;2.00;;;12.50;99.90;;;;;;5003563;28;20045;-85
2024/02/16 05:19:12;;;;;;;4.30;1.92;;;12.40;99.90;;;;;;4998390;28;20093;-85
2024/02/16 05:21:38;;;;;;;5.88;2.10;;;12.40;99.90;;;;;;4988121;28;20085;-84
2024/02/16 05:24:04;;;;;;;4.45;2.00;;;12.40;99.90;;;;;;4985471;28;20037;-87
2024/02/16 05:26:29;;;;;;;4.63;1.88;;;12.40;99.90;;;;;;4984164;28;20035;-84
2024/02/16 05:28:55;;;;;;;4.47;1.90;;;12.30;99.90;;;;;;4982530;28;20041;-87
2024/02/16 05:31:21;;;;;;;3.88;1.85;;;12.50;99.90;;;;;;4983859;28;20074;-88
2024/02/16 05:33:50;;;;;;;3.65;2.25;;;12.40;99.90;;;;;;4984270;28;20057;-87
2024/02/16 05:36:29;;;;;;;5.67;2.20;;;12.40;99.90;;;;;;4986236;28;20061;-86
2024/02/16 05:38:56;;;;;;;3.45;2.03;;;12.50;99.90;;;;;;4970717;28;20125;-87
2024/02/16 05:41:22;;;;;;;3.50;1.63;;;12.40;99.90;;;;;;5003642;28;20037;-88
2024/02/16 05:43:48;;;;;;;4.18;1.83;;;12.50;99.90;;;;;;4991569;28;20033;-88
2024/02/16 05:46:17;;;;;;;6.10;1.98;;;12.40;99.90;;;;;;4994941;28;20475;-86
2024/02/16 05:48:44;;;;;;;5.28;1.75;;;12.50;99.90;;;;;;4983060;28;20050;-87
2024/02/16 05:51:12;;;;;;;4.80;2.15;;;12.60;99.90;;;;;;4985447;28;20032;-85
2024/02/16 05:53:38;;;;;;;4.00;1.80;;;12.50;99.90;;;;;;4982066;28;20061;-85
2024/02/16 05:56:05;;;;;;;7.45;1.90;;;12.50;99.90;;;;;;4981585;28;20391;-85
2024/02/16 05:58:31;;;;;;;3.97;2.05;;;12.50;99.90;;;;;;4995925;28;20037;-86
2024/02/16 06:00:57;;;;;;;3.75;1.88;;;12.50;99.90;;;;;;5005603;28;20022;-87
2024/02/16 06:03:23;;;;;;;4.68;1.90;;;12.50;99.90;;;;;;4989250;28;20487;-86
2024/02/16 06:05:49;;;;;;;4.35;1.90;;;12.50;99.90;;;;;;5006932;28;20105;-87
2024/02/16 06:08:17;;;;;;;5.18;1.90;;;12.60;99.90;;;;;;4989325;28;20034;-87
2024/02/16 06:10:43;;;;;;;4.13;2.00;;;12.70;99.90;;;;;;4993488;28;20026;-86
2024/02/16 06:13:08;;;;;;;5.32;1.70;;;12.60;99.90;;;;;;5001964;28;20464;-84
2024/02/16 06:15:34;;;;;;;4.90;2.22;;;12.60;99.90;;;;;;4990182;28;20031;-86
2024/02/16 06:18:01;;;;;;;3.85;2.03;;;12.60;99.90;;;;;;5007363;28;20411;-86
2024/02/16 06:20:26;;;;;;;4.63;1.98;;;12.60;99.90;;;;;;4989238;28;20038;-87
2024/02/16 06:22:52;;;;;;;4.90;2.00;;;12.50;99.90;;;;;;4990343;28;20098;-88
2024/02/16 06:25:18;;;;;;;5.15;2.35;;;12.50;99.90;;;;;;4990147;28;20389;-87
2024/02/16 06:27:44;;;;;;;4.82;2.05;;;12.50;99.90;;;;;;4994178;28;20034;-88
2024/02/16 06:30:12;;;;;;;4.28;1.92;;;12.50;99.90;;;;;;5010543;28;20030;-87
2024/02/16 06:32:40;;;;;;;4.03;1.70;;;12.50;99.90;;;;;;5007921;28;20331;-88
2024/02/16 06:35:07;;;;;;;6.70;2.08;;;12.50;99.90;;;;;;4979471;28;20107;-89
2024/02/16 06:37:41;;;;;;;7.15;1.85;;;12.50;99.90;;;;;;5002519;28;20026;-88
2024/02/16 06:40:10;;;;;;;4.35;2.10;;;12.50;99.90;;;;;;4985847;28;20041;-89
2024/02/16 06:42:36;;;;;;;3.40;1.88;;;12.50;99.90;;;;;;4995559;28;20104;-85
2024/02/16 06:45:05;;;;;;;5.43;2.20;;;12.50;99.90;;;;;;5006758;28;20374;-89
2024/02/16 06:47:31;;;;;;;7.15;2.03;;;12.50;99.90;;;;;;4985147;28;20031;-90
2024/02/16 06:49:57;;;;;;;4.28;1.67;;;12.40;99.90;;;;;;4997604;28;20342;-88
2024/02/16 06:52:26;;;;;;;3.20;1.88;;;12.40;99.90;;;;;;4985640;28;20061;-88
2024/02/16 06:54:53;;;;;;;3.70;2.03;;;12.60;99.90;;;;;;4987789;28;20065;-87
2024/02/16 06:57:19;;;;;;;3.00;1.63;;;12.50;99.90;;;;;;5004179;28;20086;-91
2024/02/16 06:59:45;;;;;;;4.18;1.63;;;12.50;99.90;;;;;;4986524;28;20439;-88
2024/02/16 07:02:11;;;;;;;4.18;2.05;;;12.50;99.90;;;;;;4987081;28;20045;-90
2024/02/16 07:04:40;;;;;;;4.68;2.10;;;12.50;99.90;;;;;;4987760;28;20042;-87
2024/02/16 07:07:06;;;;;;;5.45;2.00;;;12.50;99.90;;;;;;4987565;28;20045;-88
2024/02/16 07:09:42;;;;;;;5.90;2.00;;;12.50;99.90;;;;;;4980214;28;20022;-87
2024/02/16 07:12:37;;;;;;;4.22;1.92;;;12.40;99.90;;;;;;4983935;28;20042;-86
2024/02/16 07:15:37;;;;;;;3.97;1.70;;;12.40;99.90;;;;;;5002865;28;20034;-87
2024/02/16 07:18:03;;;;;;;5.75;1.85;;;12.50;99.90;;;;;;4982313;28;20057;-88
2024/02/16 07:20:29;;;;;;;4.13;1.98;;;12.50;99.90;;;;;;4972956;28;20499;-88
2024/02/16 07:22:55;;;;;;;4.13;2.25;;;12.40;99.90;;;;;;4984968;28;20030;-89
2024/02/16 07:25:29;;;;;;;3.70;1.70;;;12.70;99.90;;;;;;4998257;28;20072;-88
2024/02/16 07:27:55;;;;;;;5.32;2.35;;;12.50;99.90;;;;;;5004894;28;20030;-87
2024/02/16 07:30:20;;;;;;;3.67;1.95;;;12.50;99.90;;;;;;4990782;28;20034;-88
2024/02/16 07:32:52;;;;;;;5.78;1.90;;;12.50;99.90;;;;;;4979628;28;20116;-85
2024/02/16 07:35:19;;;;;;;3.47;1.80;;;12.60;99.90;;;;;;4999677;28;20049;-86
2024/02/16 07:37:44;;;;;;;3.92;1.90;;;12.60;99.90;;;;;;4987815;28;20038;-87
2024/02/16 07:40:11;;;;;;;5.75;2.08;;;12.60;99.90;;;;;;4994114;28;20523;-86
2024/02/16 07:42:40;;;;;;;4.85;2.00;;;12.60;99.90;;;;;;4980505;28;20312;-87
2024/02/16 07:45:06;;;;;;;6.38;2.05;;;12.70;99.90;;;;;;5000251;28;20026;-87
2024/02/16 07:47:32;;;;;;;8.38;2.75;;;12.70;99.90;;;;;;4983874;28;20039;-85
2024/02/16 07:49:57;;;;;;;3.53;2.35;;;12.70;99.90;;;;;;4978629;28;20023;-87
2024/02/16 07:52:23;;;;;;;6.30;2.08;;;12.60;99.90;;;;;;4982392;28;20060;-87
2024/02/16 07:54:51;;;;;;;7.78;2.70;;;12.80;99.90;;;;;;4982378;28;20041;-89
2024/02/16 07:57:17;;;;;;;5.82;2.55;;;12.80;99.90;;;;;;5005388;28;20043;-88
2024/02/16 07:59:43;;;;;;;6.40;2.33;;;12.70;99.90;;;;;;4988880;28;20041;-89
2024/02/16 08:02:09;;;;;;;6.25;2.22;;;12.70;99.90;;;;;;4986575;28;20640;-88
2024/02/16 08:04:35;;;;;;;8.85;2.92;;;12.70;99.90;;;;;;4978436;28;20058;-88
2024/02/16 08:07:01;;;;;;;5.97;2.10;;;12.70;99.90;;;;;;4992495;28;20049;-87
2024/02/16 08:09:27;;;;;;;4.95;2.05;;;12.80;99.90;;;;;;4984673;28;20073;-87
2024/02/16 08:11:53;;;;;;;4.80;1.95;;;12.80;99.90;;;;;;5005960;28;20036;-87
2024/02/16 08:14:18;;;;;;;5.22;2.15;;;12.90;99.90;;;;;;5008593;28;20050;-86
2024/02/16 08:16:45;;;;;;;6.40;2.60;;;12.80;99.90;;;;;;4996565;28;20030;-87
2024/02/16 08:19:10;;;;;;;6.15;2.10;;;13.00;99.90;;;;;;4988699;28;20018;-84
2024/02/16 08:21:36;;;;;;;4.38;2.05;;;13.20;99.90;;;;;;4997787;28;20034;-86
2024/02/16 08:24:02;;;;;;;6.20;2.20;;;13.20;99.90;;;;;;4997401;28;20050;-87
2024/02/16 08:26:28;;;;;;;4.32;1.77;;;13.20;99.90;;;;;;5012968;28;20045;-86
2024/02/16 08:28:54;;;;;;;4.95;1.88;;;13.20;99.90;;;;;;5004115;28;20019;-86
2024/02/16 08:31:20;;;;;;;5.20;1.75;;;13.20;99.90;;;;;;5013171;28;20033;-88
2024/02/16 08:33:46;;;;;;;5.70;2.00;;;13.30;99.90;;;;;;4988697;28;20030;-87
2024/02/16 08:36:12;;;;;;;7.90;2.08;;;13.30;99.90;;;;;;5008979;28;20129;-86
2024/02/16 08:38:38;;;;;;;6.03;2.10;;;13.40;99.90;;;;;;4978786;28;20010;-88
2024/02/16 08:41:04;;;;;;;5.75;3.10;;;13.30;99.90;;;;;;4994238;28;20030;-87
2024/02/16 08:43:29;;;;;;;5.30;2.20;;;13.40;99.90;;;;;;4991582;28;20030;-87
2024/02/16 08:45:56;;;;;;;5.38;2.22;;;13.40;99.90;;;;;;5004566;28;20042;-87
2024/02/16 08:48:22;;;;;;;5.47;2.13;;;13.50;99.90;;;;;;4978953;28;20037;-87
2024/02/16 08:50:48;;;;;;;6.40;2.40;;;13.50;99.90;;;;;;4983428;28;20053;-87
2024/02/16 08:53:14;;;;;;;5.00;2.10;;;13.60;99.90;;;;;;4984944;28;20026;-85
2024/02/16 08:55:40;;;;;;;7.65;2.55;;;13.70;99.90;;;;;;4984417;28;20088;-86
2024/02/16 08:58:08;;;;;;;4.80;2.22;;;13.70;99.90;;;;;;4988007;28;20026;-86
2024/02/16 09:00:34;;;;;;;7.68;2.20;;;13.80;99.90;;;;;;4988763;28;20056;-87
2024/02/16 09:03:02;;;;;;;5.93;2.00;;;13.90;99.90;;;;;;4986478;28;20030;-86
2024/02/16 09:05:28;;;;;;;7.88;2.60;;;14.00;99.90;;;;;;5002668;28;20068;-85
2024/02/16 09:07:54;;;;;;;5.65;2.63;;;14.10;99.90;;;;;;5007530;28;20398;-86
2024/02/16 09:10:23;;;;;;;5.00;1.88;;;14.10;99.90;;;;;;4989525;28;20029;-86
2024/02/16 09:12:51;;;;;;;7.67;2.83;;;14.10;99.90;;;;;;4994186;28;20050;-89
2024/02/16 09:15:17;;;;;;;6.80;2.60;;;14.10;99.90;;;;;;4985750;28;20054;-86
2024/02/16 09:17:43;;;;;;;5.22;2.42;;;14.20;99.90;;;;;;4970431;28;20101;-86
2024/02/16 09:20:11;;;;;;;7.20;2.20;;;14.20;99.90;;;;;;5002427;28;20057;-87
2024/02/16 09:22:38;;;;;;;7.78;2.70;;;14.20;99.90;;;;;;4983591;28;20031;-85
2024/02/16 09:25:04;;;;;;;6.78;2.38;;;14.20;99.90;;;;;;4988088;28;20107;-86
2024/02/16 09:27:31;;;;;;;4.63;2.30;;;14.20;99.90;;;;;;4983569;28;20025;-87
2024/02/16 09:29:56;;;;;;;4.15;2.00;;;14.20;99.90;;;;;;4985419;28;20030;-88
2024/02/16 09:32:22;;;;;;;7.07;2.40;;;14.30;99.90;;;;;;4988573;28;20041;-84
2024/02/16 09:34:48;;;;;;;7.30;2.25;;;14.40;99.90;;;;;;4995597;28;20094;-87
2024/02/16 09:37:14;;;;;;;4.68;2.10;;;14.50;99.90;;;;;;4985675;28;20089;-86
2024/02/16 09:39:41;;;;;;;7.10;2.30;;;14.40;99.90;;;;;;4989479;28;20042;-88
2024/02/16 09:42:06;;;;;;;6.63;2.47;;;14.50;99.90;;;;;;4991125;28;20041;-87
2024/02/16 09:44:35;;;;;;;6.10;2.30;;;14.60;99.90;;;;;;4988935;28;20030;-87
2024/02/16 09:47:02;;;;;;;6.00;2.47;;;14.60;99.90;;;;;;4983427;28;20139;-86
2024/02/16 09:49:27;;;;;;;6.00;2.38;;;14.60;99.90;;;;;;4990252;28;20238;-87
2024/02/16 09:51:59;;;;;;;5.45;2.10;;;14.50;99.90;;;;;;4992881;28;20042;-88
2024/02/16 09:54:35;;;;;;;7.43;2.42;;;14.50;99.90;;;;;;5007101;28;20101;-88
2024/02/16 09:57:04;;;;;;;4.45;2.10;;;14.40;99.90;;;;;;4993242;28;20022;-87
2024/02/16 09:59:30;;;;;;;3.55;2.10;;;14.40;99.90;;;;;;4999500;28;20060;-87
2024/02/16 10:02:06;;;;;;;3.97;2.20;;;14.30;99.90;;;;;;4990596;28;20027;-85
2024/02/16 10:04:34;;;;;;;4.60;2.03;;;14.20;99.90;;;;;;4989600;28;20030;-88
2024/02/16 10:07:14;;;;;;;8.65;2.55;;;14.20;99.90;;;;;;4983714;28;20045;-85
2024/02/16 10:09:40;;;;;;;5.60;1.90;;;14.30;99.90;;;;;;4961005;28;20046;-87
2024/02/16 10:12:12;;;;;;;6.68;2.05;;;14.20;99.90;;;;;;4992246;28;20017;-86
2024/02/16 10:15:06;;;;;;;;;;;;;;;;;;;;;
2024/02/16 10:17:32;;;;;;;5.35;2.38;;;13.20;99.90;;;;;;5000770;28;20065;-86
2024/02/16 10:20:06;;;;;;;5.75;2.17;;;14.30;99.90;;;;;;4991127;28;20030;-86
2024/02/16 10:22:45;;;;;;;;;;;;;;;;;;;;;
2024/02/16 10:25:14;;;;;;;5.93;2.42;;;14.40;99.90;;;;;;4989937;28;20095;-89
2024/02/16 10:27:54;;;;;;;6.30;2.38;;;14.40;99.90;;;;;;4997088;28;20402;-87
2024/02/16 10:30:22;;;;;;;6.05;2.63;;;14.40;99.90;;;;;;5005604;28;20094;-87
2024/02/16 10:32:53;;;;;;;4.68;2.20;;;14.30;99.90;;;;;;4990287;28;20027;-87
2024/02/16 10:35:38;;;;;;;10.73;3.25;;;14.10;99.90;;;;;;5005879;28;20028;-85
2024/02/16 10:38:11;;;;;;;5.40;2.28;;;13.80;99.90;;;;;;4986590;28;20065;-85
2024/02/16 10:40:51;;;;;;;5.75;2.20;;;14.50;99.90;;;;;;4980718;28;20039;-86
2024/02/16 10:43:38;;;;;;;4.93;2.67;;;14.50;99.90;;;;;;4984352;28;20061;-85
2024/02/16 10:46:06;;;;;;;7.22;2.50;;;14.40;99.90;;;;;;4985315;28;20081;-88
2024/02/16 10:48:34;;;;;;;5.43;2.35;;;14.40;99.90;;;;;;4988144;28;20223;-87
2024/02/16 10:51:01;;;;;;;7.70;2.25;;;14.40;99.90;;;;;;4984238;28;20097;-85
2024/02/16 10:53:32;;;;;;;6.47;2.05;;;14.40;99.90;;;;;;4984235;28;20023;-85
2024/02/16 10:55:59;;;;;;;4.68;1.98;;;14.40;99.90;;;;;;4997001;28;20037;-86
2024/02/16 10:58:27;;;;;;;6.95;3.33;;;14.50;99.90;;;;;;4984093;28;20061;-86
2024/02/16 11:00:55;;;;;;;8.65;3.22;;;14.50;99.90;;;;;;4981507;28;20033;-84
2024/02/16 11:03:43;;;;;;;5.97;2.33;;;14.70;99.90;;;;;;5001404;28;20037;-85
2024/02/16 11:06:21;;;;;;;6.18;2.33;;;14.70;99.90;;;;;;4972068;28;20050;-85
2024/02/16 11:08:51;;;;;;;6.53;2.40;;;14.70;99.90;;;;;;4981876;28;20035;-82
2024/02/16 11:11:29;;;;;;;4.97;2.33;;;14.70;99.90;;;;;;5000401;28;20094;-86
2024/02/16 11:13:56;;;;;;;4.43;2.05;;;14.70;99.90;;;;;;4989168;28;20037;-84
2024/02/16 11:16:28;;;;;;;8.90;2.83;;;14.60;99.90;;;;;;4984884;28;20094;-85
2024/02/16 11:18:54;;;;;;;7.32;2.28;;;14.60;99.90;;;;;;4994703;28;20543;-86
2024/02/16 11:21:20;;;;;;;4.40;2.40;;;14.50;99.90;;;;;;4982986;28;20069;-83
2024/02/16 11:24:09;;;;;;;5.07;2.10;;;14.60;99.90;;;;;;5000535;28;20061;-85
2024/02/16 11:26:56;;;;;;;4.68;2.20;;;14.60;99.90;;;;;;5001750;28;20030;-86
2024/02/16 11:29:42;;;;;;;6.70;2.20;;;15.00;99.90;;;;;;4982027;28;20030;-86
2024/02/16 11:32:11;;;;;;;5.30;2.40;;;14.60;99.90;;;;;;4981417;28;20044;-86
2024/02/16 11:34:42;;;;;;;8.57;2.50;;;14.50;99.90;;;;;;4993723;28;20480;-85
2024/02/16 11:37:08;;;;;;;7.50;2.15;;;14.50;99.90;;;;;;4975769;28;20066;-84
2024/02/16 11:39:40;;;;;;;7.70;2.33;;;14.60;99.90;;;;;;4979066;28;20452;-87
2024/02/16 11:42:25;;;;;;;6.22;2.15;;;14.50;99.90;;;;;;4981512;28;20027;-86
2024/02/16 11:45:38;;;;;;;5.07;2.45;;;14.50;99.90;;;;;;4985269;28;20061;-86
2024/02/16 11:47:39;;;;;;;6.05;2.15;;;14.50;99.90;;;;;;4987619;28;20415;-86
2024/02/16 11:50:14;;;;;;;6.50;2.35;;;14.60;99.90;;;;;;4988523;28;20037;-88
2024/02/16 11:52:40;;;;;;;7.50;2.38;;;14.60;99.90;;;;;;5003389;28;20029;-89
2024/02/16 11:55:33;;;;;;;6.25;2.25;;;14.70;99.90;;;;;;4985950;28;20038;-87
2024/02/16 11:57:59;;;;;;;3.97;2.13;;;14.80;99.90;;;;;;4983948;28;20050;-86
2024/02/16 12:00:27;;;;;;;5.97;2.95;;;14.70;99.90;;;;;;4979687;28;20030;-85
2024/02/16 12:03:48;;;;;;;6.53;2.38;;;14.90;99.90;;;;;;4980495;28;20038;-86
2024/02/16 12:06:32;;;;;;;4.65;2.42;;;14.80;99.90;;;;;;4900900;29;20040;-87
2024/02/16 12:09:01;;;;;;;4.65;2.13;;;14.80;99.90;;;;;;4887673;29;20040;-87
2024/02/16 12:11:30;;;;;;;5.45;2.55;;;14.90;99.90;;;;;;4982456;28;20034;-89
2024/02/16 12:14:29;;;;;;;;;;;;;;;;;;;;;
2024/02/16 12:17:09;;;;;;;11.07;3.20;;;14.90;99.90;;;;;;4989625;28;20130;-86
2024/02/16 12:19:46;;;;;;;7.55;3.08;;;14.90;99.90;;;;;;4977758;28;20046;-87
2024/02/16 12:22:20;;;;;;;5.80;2.30;;;14.80;99.90;;;;;;4982935;28;20034;-86
2024/02/16 12:24:53;;;;;;;6.55;2.33;;;14.90;99.90;;;;;;4980423;28;20479;-86
2024/02/16 12:27:18;;;;;;;7.57;2.40;;;14.80;99.90;;;;;;4977332;28;20812;-87
2024/02/16 12:30:05;;;;;;;7.28;2.13;;;14.90;99.90;;;;;;4981742;28;20102;-88
2024/02/16 12:32:33;;;;;;;5.78;2.45;;;14.90;99.90;;;;;;4966164;28;20034;-85
2024/02/16 12:35:31;;;;;;;10.05;2.80;;;15.00;99.90;;;;;;4977354;28;20114;-87
2024/02/16 12:38:05;;;;;;;5.78;2.30;;;14.20;99.90;;;;;;4970160;28;20122;-83
2024/02/16 12:40:30;;;;;;;6.07;2.47;;;15.00;99.90;;;;;;4973666;28;20045;-85
2024/02/16 12:42:59;;;;;;;6.95;2.40;;;14.90;99.90;;;;;;4975179;28;20101;-84
2024/02/16 12:45:27;;;;;;;8.77;2.72;;;15.00;99.90;;;;;;4971837;28;20633;-83
2024/02/16 12:48:12;;;;;;;;;;;;;;;;;;;;;
2024/02/16 12:50:47;;;;;;;5.75;2.35;;;15.10;99.90;;;;;;4987851;28;20033;-85
2024/02/16 12:53:25;;;;;;;;;;;;;;;;;;;;;
2024/02/16 12:56:09;;;;;;;6.90;2.20;;;15.70;99.90;;;;;;4982233;28;20033;-85
2024/02/16 12:58:41;;;;;;;4.18;1.80;;;15.00;99.90;;;;;;4971591;28;20475;-86
